Time;durP1;ratioP1;P1;durP2;ratioP2;P2;SDS_P1;SDS_P2;PMS_P1;PMS_P2;Temp;Humidity;BMP_temperature;BMP_pressure;BME280_temperature;BME280_humidity;BME280_pressure;Samples;Min_cycle;Max_cycle;Signal;HPM_P1;HPM_P2
2024/01/09 00:01:20;;;;;;;3.30;3.10;;;4.60;99.90;;;;;;5016191;28;20252;-75
2024/01/09 00:03:48;;;;;;;3.15;2.95;;;4.60;99.90;;;;;;5017374;28;20219;-75
2024/01/09 00:06:16;;;;;;;2.85;2.75;;;4.60;99.90;;;;;;5018262;28;20227;-75
2024/01/09 00:08:43;;;;;;;3.40;3.20;;;4.60;99.90;;;;;;5016535;28;20765;-76
2024/01/09 00:11:13;;;;;;;3.35;3.15;;;4.60;99.90;;;;;;5015009;28;20224;-75
2024/01/09 00:13:40;;;;;;;3.42;3.22;;;4.60;99.90;;;;;;5017133;28;20319;-75
2024/01/09 00:16:08;;;;;;;3.33;3.15;;;4.60;99.90;;;;;;5015285;28;20231;-75
2024/01/09 00:18:35;;;;;;;3.17;3.08;;;4.60;99.90;;;;;;5018611;28;20208;-76
2024/01/09 00:21:03;;;;;;;3.00;2.80;;;4.60;99.90;;;;;;5018148;28;20756;-74
2024/01/09 00:23:30;;;;;;;3.10;2.90;;;4.60;99.90;;;;;;5014943;28;20223;-75
2024/01/09 00:25:57;;;;;;;3.30;3.10;;;4.60;99.90;;;;;;5014899;28;20234;-75
2024/01/09 00:28:24;;;;;;;3.42;3.22;;;4.60;99.90;;;;;;5015454;28;20209;-75
2024/01/09 00:30:51;;;;;;;3.40;3.20;;;4.60;99.90;;;;;;5018984;28;20240;-75
2024/01/09 00:33:18;;;;;;;3.65;3.38;;;4.60;99.90;;;;;;5021825;28;20812;-75
2024/01/09 00:35:45;;;;;;;3.55;3.28;;;4.60;99.90;;;;;;5018479;28;20227;-74
2024/01/09 00:38:14;;;;;;;3.10;2.90;;;4.60;99.90;;;;;;5017715;28;20814;-76
2024/01/09 00:40:41;;;;;;;3.45;3.25;;;4.50;99.90;;;;;;5018325;28;20236;-75
2024/01/09 00:43:08;;;;;;;3.65;3.45;;;4.50;99.90;;;;;;5020702;28;20234;-75
2024/01/09 00:45:35;;;;;;;3.03;2.83;;;4.50;99.90;;;;;;5017642;28;20247;-75
2024/01/09 00:48:02;;;;;;;2.97;2.78;;;4.50;99.90;;;;;;5018925;28;20263;-75
2024/01/09 00:50:29;;;;;;;3.40;3.10;;;4.50;99.90;;;;;;5017718;28;20224;-75
2024/01/09 00:52:57;;;;;;;3.35;3.15;;;4.50;99.90;;;;;;5019929;28;20227;-75
2024/01/09 00:55:26;;;;;;;3.15;2.95;;;4.50;99.90;;;;;;5016338;28;20246;-75
2024/01/09 00:57:53;;;;;;;3.70;3.50;;;4.50;99.90;;;;;;5018275;28;20196;-75
2024/01/09 01:00:20;;;;;;;3.33;3.13;;;4.50;99.90;;;;;;5017252;28;20216;-75
2024/01/09 01:02:47;;;;;;;2.90;2.70;;;4.40;99.90;;;;;;5017496;28;20754;-75
2024/01/09 01:05:15;;;;;;;3.30;3.10;;;4.40;99.90;;;;;;5017562;28;20223;-75
2024/01/09 01:07:42;;;;;;;3.03;2.83;;;4.30;99.90;;;;;;5017265;28;20943;-75
2024/01/09 01:10:11;;;;;;;3.30;3.10;;;4.30;99.90;;;;;;5016387;28;20215;-74
2024/01/09 01:12:40;;;;;;;3.33;3.13;;;4.30;99.90;;;;;;5016076;28;20250;-75
2024/01/09 01:15:08;;;;;;;3.08;2.90;;;4.30;99.90;;;;;;5017875;28;20707;-74
2024/01/09 01:17:35;;;;;;;3.50;3.30;;;4.30;99.90;;;;;;5019673;28;20676;-76
2024/01/09 01:20:02;;;;;;;3.30;3.10;;;4.20;99.90;;;;;;5020877;28;20215;-75
2024/01/09 01:22:29;;;;;;;3.40;3.20;;;4.30;99.90;;;;;;5015811;28;20222;-75
2024/01/09 01:24:56;;;;;;;3.78;3.58;;;4.20;99.90;;;;;;5011240;28;20262;-75
2024/01/09 01:27:23;;;;;;;3.45;3.25;;;4.10;99.90;;;;;;5015261;28;20195;-74
2024/01/09 01:29:52;;;;;;;3.20;3.00;;;4.10;99.90;;;;;;5017951;28;20227;-75
2024/01/09 01:32:19;;;;;;;3.42;3.22;;;4.00;99.90;;;;;;5014964;28;20203;-76
2024/01/09 01:34:47;;;;;;;3.60;3.40;;;4.00;99.90;;;;;;5016716;28;20227;-75
2024/01/09 01:37:14;;;;;;;3.20;3.00;;;4.10;99.90;;;;;;5015882;28;20196;-75
2024/01/09 01:39:41;;;;;;;3.30;3.10;;;4.10;99.90;;;;;;5016791;28;20567;-75
2024/01/09 01:42:08;;;;;;;3.70;3.50;;;4.10;99.90;;;;;;5018654;28;20211;-75
2024/01/09 01:44:36;;;;;;;3.30;3.15;;;4.10;99.90;;;;;;5015748;28;20219;-75
2024/01/09 01:47:06;;;;;;;3.35;3.22;;;4.10;99.90;;;;;;5018684;28;20196;-75
2024/01/09 01:49:33;;;;;;;3.47;3.28;;;4.10;99.90;;;;;;5017507;28;20208;-75
2024/01/09 01:52:00;;;;;;;3.08;2.97;;;4.10;99.90;;;;;;5021703;28;20897;-75
2024/01/09 01:54:29;;;;;;;3.28;3.10;;;4.10;99.90;;;;;;5019543;28;20222;-74
2024/01/09 01:56:57;;;;;;;3.30;3.10;;;4.00;99.90;;;;;;5018009;28;20216;-75
2024/01/09 01:59:25;;;;;;;3.10;2.90;;;4.00;99.90;;;;;;5015984;28;20200;-75
2024/01/09 02:01:53;;;;;;;3.50;3.30;;;4.00;99.90;;;;;;5013057;28;20788;-75
2024/01/09 02:04:22;;;;;;;3.40;3.20;;;4.00;99.90;;;;;;5020305;28;20230;-76
2024/01/09 02:06:49;;;;;;;3.22;3.03;;;4.00;99.90;;;;;;5017782;28;20230;-76
2024/01/09 02:09:17;;;;;;;3.60;3.40;;;4.00;99.90;;;;;;5015824;28;22030;-75
2024/01/09 02:11:46;;;;;;;3.22;3.05;;;3.90;99.90;;;;;;5017431;28;20211;-75
2024/01/09 02:14:13;;;;;;;3.63;3.42;;;4.00;99.90;;;;;;5016566;28;20226;-75
2024/01/09 02:16:41;;;;;;;2.85;2.67;;;3.90;99.90;;;;;;5014875;28;20223;-75
2024/01/09 02:19:08;;;;;;;3.25;3.15;;;3.90;99.90;;;;;;5019055;28;20929;-75
2024/01/09 02:21:36;;;;;;;3.00;2.88;;;3.90;99.90;;;;;;5015498;28;20215;-75
2024/01/09 02:24:04;;;;;;;3.20;3.00;;;3.80;99.90;;;;;;5015026;28;20222;-75
2024/01/09 02:26:32;;;;;;;3.80;3.60;;;3.80;99.90;;;;;;5018991;28;20224;-75
2024/01/09 02:29:05;;;;;;;3.53;3.33;;;3.80;99.90;;;;;;5018399;28;20204;-76
2024/01/09 02:31:34;;;;;;;3.92;3.63;;;3.80;99.90;;;;;;5016502;28;20248;-75
2024/01/09 02:34:03;;;;;;;3.92;3.63;;;3.80;99.90;;;;;;5021600;28;20212;-75
2024/01/09 02:36:30;;;;;;;3.00;2.80;;;3.80;99.90;;;;;;5021937;28;20215;-75
2024/01/09 02:38:57;;;;;;;3.63;3.42;;;3.70;99.90;;;;;;5020250;28;20207;-76
2024/01/09 02:41:24;;;;;;;3.67;3.47;;;3.70;99.90;;;;;;5018694;28;20224;-75
2024/01/09 02:43:51;;;;;;;3.40;3.20;;;3.70;99.90;;;;;;5023921;28;20219;-75
2024/01/09 02:46:19;;;;;;;3.25;3.05;;;3.70;99.90;;;;;;5022216;28;20223;-75
2024/01/09 02:48:47;;;;;;;3.40;3.20;;;3.60;99.90;;;;;;5021009;28;20204;-75
2024/01/09 02:51:14;;;;;;;3.30;3.10;;;3.60;99.90;;;;;;5019229;28;20232;-76
2024/01/09 02:53:41;;;;;;;3.40;3.20;;;3.50;99.90;;;;;;5017806;28;20250;-75
2024/01/09 02:56:08;;;;;;;3.47;3.28;;;3.50;99.90;;;;;;5017837;28;20212;-75
2024/01/09 02:58:35;;;;;;;3.67;3.47;;;3.50;99.90;;;;;;5019748;28;20192;-75
2024/01/09 03:01:02;;;;;;;3.33;3.17;;;3.40;99.90;;;;;;5016969;28;20724;-75
2024/01/09 03:03:29;;;;;;;3.90;3.70;;;3.40;99.90;;;;;;5019708;28;20235;-75
2024/01/09 03:05:58;;;;;;;3.42;3.22;;;3.40;99.90;;;;;;5020021;28;20230;-76
2024/01/09 03:08:25;;;;;;;3.25;3.15;;;3.30;99.90;;;;;;5020512;28;20219;-74
2024/01/09 03:10:52;;;;;;;3.60;3.40;;;3.30;99.90;;;;;;5019935;28;20223;-75
2024/01/09 03:13:19;;;;;;;3.67;3.38;;;3.30;99.90;;;;;;5021888;28;20237;-75
2024/01/09 03:15:46;;;;;;;3.53;3.33;;;3.30;99.90;;;;;;5019335;28;20230;-75
2024/01/09 03:18:15;;;;;;;3.72;3.53;;;3.30;99.90;;;;;;5021339;28;20199;-75
2024/01/09 03:20:42;;;;;;;3.30;3.10;;;3.30;99.90;;;;;;5017017;28;20220;-75
2024/01/09 03:23:11;;;;;;;3.20;3.00;;;3.30;99.90;;;;;;5021289;28;20586;-75
2024/01/09 03:25:38;;;;;;;3.60;3.40;;;3.30;99.90;;;;;;5015650;28;20223;-75
2024/01/09 03:28:06;;;;;;;3.38;3.17;;;3.30;99.90;;;;;;5021962;28;20207;-74
2024/01/09 03:30:33;;;;;;;3.40;3.20;;;3.30;99.90;;;;;;5019962;28;20232;-74
2024/01/09 03:33:00;;;;;;;3.70;3.50;;;3.40;99.90;;;;;;5024258;28;20223;-75
2024/01/09 03:35:27;;;;;;;3.22;3.10;;;3.40;99.90;;;;;;5020497;28;20242;-75
2024/01/09 03:37:55;;;;;;;3.47;3.28;;;3.40;99.90;;;;;;5018351;28;20224;-75
2024/01/09 03:40:23;;;;;;;3.33;3.20;;;3.50;99.90;;;;;;5021427;28;20222;-75
2024/01/09 03:42:50;;;;;;;3.35;3.22;;;3.50;99.90;;;;;;5021712;28;20232;-75
2024/01/09 03:45:17;;;;;;;3.40;3.20;;;3.50;99.90;;;;;;5020235;28;20227;-74
2024/01/09 03:47:44;;;;;;;3.38;3.25;;;3.60;99.90;;;;;;5016037;28;20204;-75
2024/01/09 03:50:11;;;;;;;3.38;3.17;;;3.50;99.90;;;;;;5018206;28;20228;-75
2024/01/09 03:52:38;;;;;;;3.53;3.33;;;3.50;99.90;;;;;;5018934;28;20203;-76
2024/01/09 03:55:06;;;;;;;3.60;3.40;;;3.50;99.90;;;;;;5020010;28;20578;-75
2024/01/09 03:57:35;;;;;;;3.38;3.17;;;3.50;99.90;;;;;;5016048;28;20219;-75
2024/01/09 04:00:02;;;;;;;2.80;2.70;;;3.50;99.90;;;;;;5016754;28;20817;-75
2024/01/09 04:02:29;;;;;;;3.40;3.20;;;3.50;99.90;;;;;;5017458;28;20200;-75
2024/01/09 04:04:56;;;;;;;3.15;3.05;;;3.50;99.90;;;;;;5015929;28;20231;-75
2024/01/09 04:07:23;;;;;;;3.50;3.30;;;3.50;99.90;;;;;;5018993;28;20705;-74
2024/01/09 04:09:50;;;;;;;3.05;2.85;;;3.50;99.90;;;;;;5018684;28;20203;-75
2024/01/09 04:12:18;;;;;;;3.58;3.38;;;3.50;99.90;;;;;;5016994;28;20204;-75
2024/01/09 04:14:46;;;;;;;3.60;3.40;;;3.50;99.90;;;;;;5018318;28;20772;-75
2024/01/09 04:17:13;;;;;;;3.35;3.15;;;3.50;99.90;;;;;;5016696;28;20211;-74
2024/01/09 04:19:41;;;;;;;3.30;3.10;;;3.50;99.90;;;;;;5018224;28;20216;-75
2024/01/09 04:22:08;;;;;;;3.28;3.08;;;3.50;99.90;;;;;;5016825;28;20216;-75
2024/01/09 04:24:35;;;;;;;3.28;3.08;;;3.50;99.90;;;;;;5019543;28;20230;-75
2024/01/09 04:27:04;;;;;;;3.50;3.30;;;3.60;99.90;;;;;;5019849;28;20215;-74
2024/01/09 04:29:31;;;;;;;3.50;3.30;;;3.60;99.90;;;;;;5019210;28;20568;-75
2024/01/09 04:31:59;;;;;;;3.33;3.22;;;3.60;99.90;;;;;;5017968;28;20230;-75
2024/01/09 04:34:27;;;;;;;3.30;3.15;;;3.60;99.90;;;;;;5016227;28;20256;-74
2024/01/09 04:36:54;;;;;;;3.60;3.40;;;3.50;99.90;;;;;;5018104;28;20228;-75
2024/01/09 04:39:21;;;;;;;3.22;3.13;;;3.60;99.90;;;;;;5016272;28;20634;-74
2024/01/09 04:41:48;;;;;;;3.13;3.03;;;3.60;99.90;;;;;;5021122;28;20223;-75
2024/01/09 04:44:15;;;;;;;3.70;3.50;;;3.50;99.90;;;;;;5014610;28;20230;-75
2024/01/09 04:46:42;;;;;;;3.70;3.50;;;3.50;99.90;;;;;;5019648;28;20319;-75
2024/01/09 04:49:10;;;;;;;3.63;3.42;;;3.50;99.90;;;;;;5015993;28;20211;-76
2024/01/09 04:51:37;;;;;;;3.38;3.17;;;3.50;99.90;;;;;;5016003;28;20227;-75
2024/01/09 04:54:05;;;;;;;3.60;3.40;;;3.50;99.90;;;;;;5016358;28;20216;-74
2024/01/09 04:56:32;;;;;;;3.33;3.17;;;3.50;99.90;;;;;;5013624;28;20231;-75
2024/01/09 04:58:59;;;;;;;3.38;3.17;;;3.50;99.90;;;;;;5015889;28;20211;-75
2024/01/09 05:01:26;;;;;;;3.03;2.83;;;3.50;99.90;;;;;;5014569;28;20216;-75
2024/01/09 05:03:53;;;;;;;3.28;3.08;;;3.50;99.90;;;;;;5018173;28;20680;-75
2024/01/09 05:06:22;;;;;;;2.97;2.88;;;3.50;99.90;;;;;;5013188;28;20766;-75
2024/01/09 05:08:49;;;;;;;3.72;3.53;;;3.50;99.90;;;;;;5016735;28;20307;-76
2024/01/09 05:11:16;;;;;;;4.60;4.30;;;3.50;99.90;;;;;;5013856;28;20218;-75
2024/01/09 05:13:43;;;;;;;5.05;4.75;;;3.50;99.90;;;;;;5016164;28;20242;-75
2024/01/09 05:16:10;;;;;;;4.85;4.55;;;3.60;99.90;;;;;;5016423;28;20774;-75
2024/01/09 05:18:37;;;;;;;5.30;4.93;;;3.60;99.90;;;;;;5016348;28;20210;-75
2024/01/09 05:21:05;;;;;;;5.25;4.93;;;3.60;99.90;;;;;;5013688;28;20224;-75
2024/01/09 05:23:33;;;;;;;7.68;7.18;;;3.50;99.90;;;;;;5019151;28;20232;-74
2024/01/09 05:26:02;;;;;;;12.82;11.93;;;3.50;99.90;;;;;;5015304;28;20227;-74
2024/01/09 05:28:29;;;;;;;12.00;11.18;;;3.50;99.90;;;;;;5019238;28;20273;-75
2024/01/09 05:30:56;;;;;;;9.77;9.13;;;3.50;99.90;;;;;;5017370;28;20922;-75
2024/01/09 05:33:23;;;;;;;8.27;7.78;;;3.50;99.90;;;;;;5016727;28;20216;-75
2024/01/09 05:35:50;;;;;;;7.20;6.70;;;3.50;99.90;;;;;;5013943;28;20228;-75
2024/01/09 05:38:17;;;;;;;6.50;6.03;;;3.50;99.90;;;;;;5016920;28;20208;-75
2024/01/09 05:40:46;;;;;;;5.30;5.00;;;3.40;99.90;;;;;;5020229;28;20219;-75
2024/01/09 05:43:13;;;;;;;5.40;5.05;;;3.30;99.90;;;;;;5020547;28;20227;-75
2024/01/09 05:45:40;;;;;;;5.30;5.00;;;3.30;99.90;;;;;;5013466;28;21149;-75
2024/01/09 05:48:08;;;;;;;5.07;4.78;;;3.30;99.90;;;;;;5018230;28;20203;-76
2024/01/09 05:50:35;;;;;;;5.18;4.88;;;3.30;99.90;;;;;;5017365;28;20227;-75
2024/01/09 05:53:02;;;;;;;4.97;4.68;;;3.30;99.90;;;;;;5018344;28;20227;-75
2024/01/09 05:55:29;;;;;;;5.00;4.70;;;3.30;99.90;;;;;;5021571;28;20227;-76
2024/01/09 05:57:58;;;;;;;5.00;4.70;;;3.30;99.90;;;;;;5018605;28;20927;-76
2024/01/09 06:00:25;;;;;;;4.43;4.13;;;3.30;99.90;;;;;;5016861;28;20274;-75
2024/01/09 06:02:52;;;;;;;4.40;4.20;;;3.30;99.90;;;;;;5015940;28;20251;-76
2024/01/09 06:05:19;;;;;;;4.10;3.90;;;3.30;99.90;;;;;;5016632;28;20223;-76
2024/01/09 06:07:46;;;;;;;4.50;4.28;;;3.30;99.90;;;;;;5020285;28;20231;-76
2024/01/09 06:10:14;;;;;;;4.50;4.20;;;3.30;99.90;;;;;;5019409;28;20763;-75
2024/01/09 06:12:41;;;;;;;4.35;4.10;;;3.40;99.90;;;;;;5020751;28;20238;-76
2024/01/09 06:15:10;;;;;;;4.40;4.10;;;3.40;99.90;;;;;;5022631;28;20219;-76
2024/01/09 06:17:37;;;;;;;4.15;3.92;;;3.40;99.90;;;;;;5023811;28;20207;-75
2024/01/09 06:20:04;;;;;;;4.15;3.85;;;3.40;99.90;;;;;;5021247;28;20219;-75
2024/01/09 06:22:31;;;;;;;4.18;3.92;;;3.40;99.90;;;;;;5016165;28;20203;-75
2024/01/09 06:24:59;;;;;;;4.18;3.90;;;3.30;99.90;;;;;;5018229;28;20224;-75
2024/01/09 06:27:26;;;;;;;4.45;4.15;;;3.30;99.90;;;;;;5019994;28;20208;-75
2024/01/09 06:29:53;;;;;;;4.03;3.83;;;3.30;99.90;;;;;;5019244;28;20211;-75
2024/01/09 06:32:21;;;;;;;4.30;4.00;;;3.20;99.90;;;;;;5019224;28;20199;-75
2024/01/09 06:34:48;;;;;;;3.80;3.60;;;3.20;99.90;;;;;;5019592;28;20216;-75
2024/01/09 06:37:15;;;;;;;4.18;3.95;;;3.20;99.90;;;;;;5023420;28;20700;-75
2024/01/09 06:39:42;;;;;;;4.00;3.70;;;3.20;99.90;;;;;;5019720;28;20205;-74
2024/01/09 06:42:09;;;;;;;4.20;3.97;;;3.20;99.90;;;;;;5017179;28;20210;-75
2024/01/09 06:44:36;;;;;;;3.72;3.53;;;3.20;99.90;;;;;;5018965;28;20789;-75
2024/01/09 06:47:04;;;;;;;4.40;4.10;;;3.20;99.90;;;;;;5017840;28;20210;-75
2024/01/09 06:49:32;;;;;;;3.53;3.30;;;3.20;99.90;;;;;;5014423;28;20206;-75
2024/01/09 06:51:59;;;;;;;3.50;3.30;;;3.20;99.90;;;;;;5018853;28;20219;-75
2024/01/09 06:54:26;;;;;;;3.83;3.60;;;3.20;99.90;;;;;;5014672;28;20373;-75
2024/01/09 06:56:53;;;;;;;3.63;3.42;;;3.20;99.90;;;;;;5015430;28;20216;-75
2024/01/09 06:59:20;;;;;;;4.22;3.92;;;3.20;99.90;;;;;;5016161;28;20195;-75
2024/01/09 07:01:47;;;;;;;3.88;3.60;;;3.20;99.90;;;;;;5013463;28;20223;-75
2024/01/09 07:04:15;;;;;;;3.67;3.47;;;3.10;99.90;;;;;;5015127;28;20228;-75
2024/01/09 07:06:43;;;;;;;3.60;3.40;;;3.10;99.90;;;;;;5014763;28;20232;-75
2024/01/09 07:09:11;;;;;;;3.80;3.60;;;3.10;99.90;;;;;;5017293;28;20204;-75
2024/01/09 07:11:38;;;;;;;3.58;3.38;;;3.10;99.90;;;;;;5016990;28;20602;-75
2024/01/09 07:14:05;;;;;;;4.30;4.05;;;3.10;99.90;;;;;;5018904;28;20999;-75
2024/01/09 07:16:32;;;;;;;3.88;3.67;;;3.10;99.90;;;;;;5017849;28;20220;-74
2024/01/09 07:18:59;;;;;;;3.75;3.55;;;3.00;99.90;;;;;;5012689;28;20735;-73
2024/01/09 07:21:26;;;;;;;3.75;3.55;;;3.10;99.90;;;;;;5013408;28;20220;-75
2024/01/09 07:23:55;;;;;;;3.65;3.45;;;3.10;99.90;;;;;;5019027;28;20698;-74
2024/01/09 07:26:22;;;;;;;3.97;3.67;;;3.10;99.90;;;;;;5016894;28;20234;-75
2024/01/09 07:28:49;;;;;;;5.22;4.72;;;3.10;99.90;;;;;;5013575;28;20203;-75
2024/01/09 07:31:16;;;;;;;6.10;5.50;;;3.00;99.90;;;;;;5019351;28;20220;-75
2024/01/09 07:33:43;;;;;;;5.60;5.10;;;3.00;99.90;;;;;;5014649;28;20227;-75
2024/01/09 07:36:10;;;;;;;5.88;5.28;;;3.00;99.90;;;;;;5016525;28;20222;-76
2024/01/09 07:38:37;;;;;;;5.38;4.90;;;3.00;99.90;;;;;;5016760;28;20204;-76
2024/01/09 07:41:06;;;;;;;5.10;4.60;;;3.00;99.90;;;;;;5013626;28;20235;-76
2024/01/09 07:43:33;;;;;;;4.97;4.57;;;3.10;99.90;;;;;;5016243;28;20227;-76
2024/01/09 07:46:01;;;;;;;4.55;4.25;;;3.10;99.90;;;;;;5014366;28;20238;-76
2024/01/09 07:48:28;;;;;;;5.25;4.75;;;3.10;99.90;;;;;;5015078;28;20210;-76
2024/01/09 07:50:56;;;;;;;5.50;5.07;;;3.30;99.90;;;;;;5020547;28;20226;-76
2024/01/09 07:53:23;;;;;;;5.20;4.80;;;3.30;99.90;;;;;;5015776;28;20330;-75
2024/01/09 07:55:50;;;;;;;5.45;5.05;;;3.40;99.90;;;;;;5015891;28;20235;-76
2024/01/09 07:58:18;;;;;;;4.88;4.47;;;3.50;99.90;;;;;;5018260;28;20204;-75
2024/01/09 08:00:46;;;;;;;5.18;4.88;;;3.40;99.90;;;;;;5016503;28;20227;-75
2024/01/09 08:03:14;;;;;;;4.97;4.68;;;3.40;99.90;;;;;;5018063;28;20246;-75
2024/01/09 08:05:41;;;;;;;4.50;4.20;;;3.40;99.90;;;;;;5015900;28;20232;-75
2024/01/09 08:08:08;;;;;;;5.38;4.85;;;3.30;99.90;;;;;;5007246;28;20723;-76
2024/01/09 08:10:35;;;;;;;5.13;4.70;;;3.30;99.90;;;;;;5012181;28;20234;-76
2024/01/09 08:13:02;;;;;;;5.20;4.80;;;3.40;99.90;;;;;;5011483;28;20236;-75
2024/01/09 08:15:30;;;;;;;4.70;4.32;;;3.50;99.90;;;;;;5011122;28;20212;-76
2024/01/09 08:17:58;;;;;;;4.95;4.55;;;3.60;99.90;;;;;;5018226;28;20289;-76
2024/01/09 08:20:25;;;;;;;5.00;4.70;;;3.70;99.90;;;;;;5013993;28;20235;-75
2024/01/09 08:22:52;;;;;;;5.60;5.20;;;3.80;99.90;;;;;;5013753;28;20227;-75
2024/01/09 08:25:19;;;;;;;5.03;4.72;;;3.90;99.90;;;;;;5017150;28;20228;-76
2024/01/09 08:27:46;;;;;;;4.45;4.15;;;4.10;99.90;;;;;;5009757;28;20216;-74
2024/01/09 08:30:14;;;;;;;4.28;4.07;;;4.20;99.90;;;;;;5008252;28;20227;-74
2024/01/09 08:32:43;;;;;;;4.55;4.25;;;4.40;99.90;;;;;;5011224;28;20624;-75
2024/01/09 08:35:10;;;;;;;4.60;4.30;;;4.70;99.90;;;;;;5007272;28;20239;-77
2024/01/09 08:37:37;;;;;;;4.68;4.38;;;5.00;99.90;;;;;;5009163;28;20691;-75
2024/01/09 08:40:06;;;;;;;4.88;4.50;;;5.30;99.90;;;;;;5009272;28;20235;-75
2024/01/09 08:42:33;;;;;;;5.05;4.75;;;5.70;99.90;;;;;;5012636;28;20204;-75
2024/01/09 08:45:00;;;;;;;5.78;5.38;;;5.90;99.90;;;;;;5012802;28;20238;-76
2024/01/09 08:47:27;;;;;;;5.35;5.03;;;6.00;99.90;;;;;;5011437;28;20218;-76
2024/01/09 08:49:56;;;;;;;4.97;4.57;;;6.10;99.90;;;;;;5011191;28;20846;-76
2024/01/09 08:52:25;;;;;;;5.35;4.95;;;6.10;99.90;;;;;;5012325;28;20294;-75
2024/01/09 08:54:53;;;;;;;7.75;5.57;;;6.20;99.90;;;;;;5008647;28;20231;-76
2024/01/09 08:57:20;;;;;;;6.85;6.25;;;6.20;99.90;;;;;;5009677;28;20208;-75
2024/01/09 08:59:48;;;;;;;6.65;6.03;;;6.20;99.90;;;;;;5008095;28;20211;-76
2024/01/09 09:02:15;;;;;;;6.70;5.75;;;6.20;99.90;;;;;;5009502;28;20211;-76
2024/01/09 09:04:42;;;;;;;6.70;6.10;;;6.20;99.90;;;;;;5010321;28;20227;-75
2024/01/09 09:07:11;;;;;;;6.65;6.05;;;6.10;99.90;;;;;;5008366;28;20211;-76
2024/01/09 09:09:38;;;;;;;6.78;6.18;;;6.00;99.90;;;;;;5009749;28;20204;-76
2024/01/09 09:12:05;;;;;;;6.13;5.63;;;6.00;99.90;;;;;;5015351;28;20195;-76
2024/01/09 09:14:33;;;;;;;5.75;5.25;;;6.00;99.90;;;;;;5010181;28;20235;-74
2024/01/09 09:17:00;;;;;;;5.63;5.20;;;6.10;99.90;;;;;;5009811;28;20226;-74
2024/01/09 09:19:27;;;;;;;5.90;5.20;;;6.10;99.90;;;;;;5009132;28;20207;-75
2024/01/09 09:21:55;;;;;;;5.60;5.20;;;6.10;99.90;;;;;;5009119;28;20894;-75
2024/01/09 09:24:24;;;;;;;5.32;4.88;;;6.10;99.90;;;;;;5006725;28;20238;-75
2024/01/09 09:26:51;;;;;;;5.35;4.85;;;6.70;99.90;;;;;;5011778;28;20232;-74
2024/01/09 09:29:18;;;;;;;5.75;5.25;;;6.90;99.90;;;;;;5014308;28;20212;-75
2024/01/09 09:31:54;;;;;;;5.70;5.20;;;7.00;99.90;;;;;;5008179;28;20224;-75
2024/01/09 09:34:21;;;;;;;4.95;4.60;;;8.50;99.90;;;;;;5008721;28;20219;-75
2024/01/09 09:36:49;;;;;;;5.32;4.82;;;10.10;99.90;;;;;;5009738;28;20231;-75
2024/01/09 09:39:16;;;;;;;5.28;4.85;;;10.40;99.90;;;;;;5003379;28;20833;-76
2024/01/09 09:41:47;;;;;;;5.18;4.78;;;10.00;99.90;;;;;;5008672;28;20230;-76
2024/01/09 09:44:15;;;;;;;7.00;5.68;;;9.50;99.90;;;;;;5008115;28;20299;-75
2024/01/09 09:46:43;;;;;;;5.40;5.00;;;9.10;99.90;;;;;;5005733;28;20977;-74
2024/01/09 09:49:11;;;;;;;5.05;4.63;;;9.10;99.90;;;;;;5004970;28;20203;-74
2024/01/09 09:51:39;;;;;;;5.30;4.82;;;9.10;99.90;;;;;;5006536;28;20215;-75
2024/01/09 09:54:09;;;;;;;5.43;5.00;;;9.30;99.90;;;;;;5009737;28;20228;-74
2024/01/09 09:56:36;;;;;;;5.18;4.68;;;11.20;99.90;;;;;;5010387;28;20729;-75
2024/01/09 09:59:05;;;;;;;5.35;4.75;;;12.10;99.90;;;;;;5009666;28;20211;-75
2024/01/09 10:01:33;;;;;;;4.88;4.45;;;12.60;99.90;;;;;;5007513;28;20373;-75
2024/01/09 10:04:03;;;;;;;5.00;4.55;;;11.90;99.90;;;;;;5008140;28;20231;-75
2024/01/09 10:06:34;;;;;;;4.85;4.47;;;11.10;99.90;;;;;;5007395;28;20741;-75
2024/01/09 10:09:03;;;;;;;5.60;5.10;;;10.90;99.90;;;;;;5005847;28;20622;-75
2024/01/09 10:11:33;;;;;;;4.78;4.38;;;10.20;99.90;;;;;;5006116;28;20243;-76
2024/01/09 10:14:00;;;;;;;5.57;4.78;;;9.70;99.90;;;;;;5011300;28;20224;-75
2024/01/09 10:16:29;;;;;;;7.43;4.57;;;9.50;99.90;;;;;;5003422;28;20227;-75
2024/01/09 10:18:56;;;;;;;5.30;4.90;;;9.30;99.90;;;;;;5008546;28;20203;-74
2024/01/09 10:21:23;;;;;;;4.80;4.50;;;9.10;99.90;;;;;;5011227;28;20231;-75
2024/01/09 10:23:50;;;;;;;5.40;5.00;;;9.10;99.90;;;;;;5008600;28;20243;-74
2024/01/09 10:26:17;;;;;;;5.28;4.78;;;9.00;99.90;;;;;;5006575;28;20234;-73
2024/01/09 10:28:47;;;;;;;5.10;4.60;;;8.90;99.90;;;;;;5008196;28;20215;-74
2024/01/09 10:31:14;;;;;;;5.03;4.53;;;8.60;99.90;;;;;;5011271;28;20622;-75
2024/01/09 10:33:43;;;;;;;5.30;4.80;;;8.40;99.90;;;;;;5010066;28;20227;-74
2024/01/09 10:36:10;;;;;;;5.32;4.78;;;8.20;99.90;;;;;;5009569;28;20230;-75
2024/01/09 10:38:37;;;;;;;5.68;5.18;;;8.00;99.90;;;;;;5009033;28;20226;-74
2024/01/09 10:41:15;;;;;;;5.03;4.63;;;7.90;99.90;;;;;;5009447;28;20818;-75
2024/01/09 10:43:43;;;;;;;5.15;4.75;;;7.70;99.90;;;;;;5010626;28;20227;-75
2024/01/09 10:46:10;;;;;;;4.88;4.35;;;7.60;99.90;;;;;;5009656;28;20315;-75
2024/01/09 10:48:39;;;;;;;4.95;4.55;;;7.50;99.90;;;;;;5007500;28;20295;-75
2024/01/09 10:51:11;;;;;;;4.15;3.85;;;7.50;99.90;;;;;;5006345;28;20226;-75
2024/01/09 10:53:40;;;;;;;4.65;4.35;;;7.40;99.90;;;;;;5011477;28;20219;-75
2024/01/09 10:56:10;;;;;;;4.88;4.47;;;7.40;99.90;;;;;;5010641;28;20306;-76
2024/01/09 10:58:37;;;;;;;4.43;4.13;;;7.30;99.90;;;;;;5014323;28;20737;-75
2024/01/09 11:01:05;;;;;;;4.80;4.40;;;7.20;99.90;;;;;;5010425;28;20231;-74
2024/01/09 11:03:32;;;;;;;4.40;4.10;;;7.20;99.90;;;;;;5004378;28;20230;-75
2024/01/09 11:06:03;;;;;;;5.20;4.13;;;7.10;99.90;;;;;;4993801;28;21966;-75
2024/01/09 11:08:34;;;;;;;4.72;4.32;;;7.10;99.90;;;;;;4993167;28;21186;-75
2024/01/09 11:11:03;;;;;;;4.40;4.00;;;7.10;99.90;;;;;;4994156;28;20665;-75
2024/01/09 11:13:33;;;;;;;4.63;4.32;;;7.10;99.90;;;;;;4994456;28;20231;-75
2024/01/09 11:16:02;;;;;;;4.30;4.00;;;7.20;99.90;;;;;;5011479;28;20230;-75
2024/01/09 11:18:30;;;;;;;4.78;4.40;;;7.30;99.90;;;;;;5011902;28;20245;-75
2024/01/09 11:21:01;;;;;;;4.57;4.28;;;7.20;99.90;;;;;;5008108;28;20259;-75
2024/01/09 11:23:54;;;;;;;5.47;4.57;;;7.20;99.90;;;;;;5012585;28;20314;-75
2024/01/09 11:26:23;;;;;;;5.00;4.60;;;7.30;99.90;;;;;;5007314;28;20247;-75
2024/01/09 11:28:50;;;;;;;4.63;4.32;;;7.40;99.90;;;;;;5014153;28;20308;-75
2024/01/09 11:31:20;;;;;;;4.50;4.20;;;7.50;99.90;;;;;;5011906;28;20227;-75
2024/01/09 11:33:48;;;;;;;4.85;4.45;;;7.40;99.90;;;;;;5015803;28;20265;-74
2024/01/09 11:36:23;;;;;;;4.18;3.88;;;7.30;99.90;;;;;;5010535;28;20219;-75
2024/01/09 11:38:54;;;;;;;4.43;4.13;;;7.20;99.90;;;;;;5015348;28;20298;-74
2024/01/09 11:41:23;;;;;;;4.97;4.57;;;7.00;99.90;;;;;;5014752;28;20285;-75
2024/01/09 11:44:01;;;;;;;5.07;4.68;;;6.90;99.90;;;;;;5012815;28;20475;-75
2024/01/09 11:46:28;;;;;;;4.72;4.32;;;6.90;99.90;;;;;;5008969;28;20247;-74
2024/01/09 11:48:56;;;;;;;4.18;3.88;;;6.80;99.90;;;;;;5012522;28;20196;-74
2024/01/09 11:51:23;;;;;;;4.75;4.45;;;6.80;99.90;;;;;;5014169;28;20219;-75
2024/01/09 11:53:51;;;;;;;4.40;4.10;;;6.90;99.90;;;;;;5014275;28;20782;-75
2024/01/09 11:56:21;;;;;;;5.10;4.63;;;7.00;99.90;;;;;;5007877;28;20223;-76
2024/01/09 11:58:50;;;;;;;4.55;4.20;;;6.90;99.90;;;;;;5009210;28;20207;-74
2024/01/09 12:01:20;;;;;;;5.03;4.63;;;6.90;99.90;;;;;;5012622;28;20765;-75
2024/01/09 12:03:52;;;;;;;4.63;4.28;;;6.90;99.90;;;;;;5014097;28;20231;-75
2024/01/09 12:06:19;;;;;;;4.68;4.38;;;6.90;99.90;;;;;;5005474;28;20940;-74
2024/01/09 12:08:46;;;;;;;4.45;4.15;;;6.80;99.90;;;;;;5010981;28;20211;-75
2024/01/09 12:11:13;;;;;;;4.53;4.20;;;6.80;99.90;;;;;;5012189;28;20227;-74
2024/01/09 12:13:42;;;;;;;4.38;4.07;;;6.80;99.90;;;;;;5010499;28;20270;-75
2024/01/09 12:16:19;;;;;;;5.07;4.68;;;6.90;99.90;;;;;;5009290;28;20223;-75
2024/01/09 12:18:48;;;;;;;4.60;4.22;;;6.80;99.90;;;;;;5010234;28;20819;-74
2024/01/09 12:21:16;;;;;;;4.72;4.35;;;6.70;99.90;;;;;;5010344;28;20211;-74
2024/01/09 12:23:43;;;;;;;4.57;4.18;;;6.70;99.90;;;;;;5015516;28;20242;-75
2024/01/09 12:26:11;;;;;;;4.50;4.20;;;6.70;99.90;;;;;;5009969;28;20227;-74
2024/01/09 12:28:38;;;;;;;4.78;4.32;;;6.70;99.90;;;;;;5010876;28;20196;-75
2024/01/09 12:31:09;;;;;;;4.35;3.95;;;6.60;99.90;;;;;;5012415;28;20314;-74
2024/01/09 12:33:37;;;;;;;4.60;4.20;;;6.60;99.90;;;;;;5012303;28;20251;-75
2024/01/09 12:36:04;;;;;;;4.50;4.20;;;6.60;99.90;;;;;;5010290;28;20721;-74
2024/01/09 12:38:32;;;;;;;4.85;4.38;;;6.60;99.90;;;;;;5007109;28;20207;-75
2024/01/09 12:41:00;;;;;;;6.57;5.00;;;6.60;99.90;;;;;;5013091;28;20228;-75
2024/01/09 12:43:27;;;;;;;5.30;4.80;;;6.60;99.90;;;;;;5013344;28;20224;-75
2024/01/09 12:45:55;;;;;;;5.75;4.55;;;6.50;99.90;;;;;;5011152;28;20322;-75
2024/01/09 12:48:23;;;;;;;5.05;4.60;;;6.40;99.90;;;;;;5012571;28;20218;-76
2024/01/09 12:51:01;;;;;;;4.70;4.30;;;6.40;99.90;;;;;;5010555;28;20232;-75
2024/01/09 12:53:29;;;;;;;4.72;4.38;;;6.40;99.90;;;;;;5013770;28;20227;-75
2024/01/09 12:56:07;;;;;;;5.00;4.60;;;6.30;99.90;;;;;;5010105;28;20219;-75
2024/01/09 12:58:36;;;;;;;4.70;4.30;;;6.40;99.90;;;;;;5010700;28;20288;-75
2024/01/09 13:01:04;;;;;;;4.93;4.53;;;6.40;99.90;;;;;;5010625;28;20705;-74